createdAt,value
2018-08-23T04:00:38.495Z,12.00
2018-08-23T04:01:38.458Z,20.00
2018-08-23T04:02:38.448Z,20.00
2018-08-23T04:03:38.476Z,24.00
2018-08-23T04:04:38.439Z,24.00
2018-08-23T04:05:38.414Z,28.00
2018-08-23T04:06:38.440Z,36.00
2018-08-23T04:07:38.415Z,40.00
2018-08-23T04:08:38.398Z,44.00
2018-08-23T04:09:38.370Z,44.00
2018-08-23T04:10:38.363Z,56.00
2018-08-23T04:11:38.350Z,60.00
2018-08-23T04:12:38.333Z,64.00
2018-08-23T04:13:38.333Z,72.00
2018-08-23T04:14:38.340Z,80.00
2018-08-23T04:15:38.298Z,84.00
2018-08-23T04:16:38.360Z,92.00
2018-08-23T04:17:38.282Z,104.00
2018-08-23T04:18:38.307Z,116.00
2018-08-23T04:19:38.257Z,124.00
2018-08-23T04:20:38.260Z,132.00
2018-08-23T04:21:38.232Z,144.00
2018-08-23T04:22:38.227Z,156.00
2018-08-23T04:23:38.224Z,164.00
2018-08-23T04:24:38.200Z,176.00
2018-08-23T04:25:38.187Z,188.00
2018-08-23T04:26:38.185Z,204.00
2018-08-23T04:27:38.165Z,224.00
2018-08-23T04:28:38.167Z,236.00
2018-08-23T04:29:38.143Z,248.00
2018-08-23T04:30:38.138Z,264.00
2018-08-23T04:31:38.125Z,284.00
2018-08-23T04:32:38.112Z,292.00
2018-08-23T04:33:38.113Z,316.00
2018-08-23T04:34:38.089Z,332.00
2018-08-23T04:35:38.086Z,348.00
2018-08-23T04:36:38.067Z,364.00
2018-08-23T04:37:38.059Z,376.00
2018-08-23T04:38:38.058Z,396.00
2018-08-23T04:39:38.034Z,408.00
2018-08-23T04:40:38.022Z,428.00
2018-08-23T04:41:38.012Z,444.00
2018-08-23T04:42:38.009Z,452.00
2018-08-23T04:43:38.004Z,476.00
2018-08-23T04:44:37.980Z,488.00
2018-08-23T04:45:37.966Z,512.00
2018-08-23T04:46:37.956Z,524.00
2018-08-23T04:47:37.945Z,540.00
2018-08-23T04:48:37.948Z,552.00
2018-08-23T04:49:37.931Z,572.00
2018-08-23T04:50:37.920Z,592.00
2018-08-23T04:51:37.927Z,608.00
2018-08-23T04:52:37.889Z,624.00
2018-08-23T04:53:37.889Z,644.00
2018-08-23T04:54:37.885Z,656.00
2018-08-23T04:55:37.890Z,680.00
2018-08-23T04:56:37.849Z,696.00
2018-08-23T04:57:37.837Z,712.00
2018-08-23T04:58:37.835Z,728.00
2018-08-23T04:59:37.812Z,752.00
2018-08-23T05:00:37.801Z,764.00
2018-08-23T05:01:37.793Z,784.00
2018-08-23T05:02:37.785Z,808.00
2018-08-23T05:03:37.781Z,824.00
2018-08-23T05:04:37.758Z,848.00
2018-08-23T05:05:37.744Z,864.00
2018-08-23T05:06:37.733Z,880.00
2018-08-23T05:07:37.725Z,908.00
2018-08-23T05:08:37.766Z,928.00
2018-08-23T05:09:37.702Z,952.00
2018-08-23T05:10:37.693Z,972.00
2018-08-23T05:11:37.684Z,996.00
2018-08-23T05:12:37.672Z,1012.00
2018-08-23T05:13:37.668Z,1032.00
2018-08-23T05:14:37.645Z,1044.00
2018-08-23T05:15:37.633Z,1056.00
2018-08-23T05:16:37.627Z,1068.00
2018-08-23T05:17:37.614Z,1080.00
2018-08-23T05:18:37.616Z,1100.00
2018-08-23T05:19:37.594Z,1116.00
2018-08-23T05:20:37.578Z,1132.00
2018-08-23T05:21:37.572Z,1144.00
2018-08-23T05:22:37.565Z,1168.00
2018-08-23T05:23:37.557Z,1176.00
2018-08-23T05:24:37.542Z,1188.00
2018-08-23T05:25:37.533Z,1200.00
2018-08-23T05:26:37.512Z,1220.00
2018-08-23T05:27:37.506Z,1240.00
2018-08-23T05:28:37.509Z,1260.00
2018-08-23T05:29:37.478Z,1272.00
2018-08-23T05:30:37.469Z,1292.00
2018-08-23T05:31:37.454Z,1308.00
2018-08-23T05:32:37.447Z,1332.00
2018-08-23T05:33:37.468Z,1352.00
2018-08-23T05:34:37.425Z,1360.00
2018-08-23T05:35:37.418Z,1384.00
2018-08-23T05:36:37.402Z,1400.00
2018-08-23T05:37:37.460Z,1420.00
2018-08-23T05:38:37.381Z,1428.00
2018-08-23T05:39:37.383Z,1444.00
2018-08-23T05:40:37.358Z,1464.00
2018-08-23T05:41:37.348Z,1476.00
2018-08-23T05:42:37.346Z,1488.00
2018-08-23T05:43:37.321Z,1500.00
2018-08-23T05:44:37.330Z,1520.00
2018-08-23T05:45:37.312Z,1536.00
2018-08-23T05:46:37.294Z,1556.00
2018-08-23T05:47:37.322Z,1572.00
2018-08-23T05:48:37.271Z,1584.00
2018-08-23T05:49:37.270Z,1604.00
2018-08-23T05:50:37.245Z,1624.00
2018-08-23T05:51:37.237Z,1640.00
2018-08-23T05:52:37.226Z,1648.00
2018-08-23T05:53:37.212Z,1668.00
2018-08-23T05:54:37.214Z,1676.00
2018-08-23T05:55:37.195Z,1684.00
2018-08-23T05:56:37.184Z,1700.00
2018-08-23T05:57:37.170Z,1708.00
2018-08-23T05:58:37.159Z,1728.00
2018-08-23T05:59:37.160Z,1740.00
2018-08-23T06:00:37.136Z,1764.00
2018-08-23T06:01:37.127Z,1772.00
2018-08-23T06:02:37.132Z,1788.00
2018-08-23T06:03:37.109Z,1812.00
2018-08-23T06:04:37.106Z,1820.00
2018-08-23T06:05:37.081Z,1836.00
2018-08-23T06:06:37.066Z,1848.00
2018-08-23T06:07:37.064Z,1860.00
2018-08-23T06:08:37.047Z,1872.00
2018-08-23T06:09:37.059Z,1888.00
2018-08-23T06:10:37.026Z,1908.00
2018-08-23T06:11:37.032Z,1924.00
2018-08-23T06:12:37.069Z,1948.00
2018-08-23T06:13:36.990Z,1968.00
2018-08-23T06:14:36.997Z,1988.00
2018-08-23T06:15:36.969Z,2004.00
2018-08-23T06:16:36.965Z,2036.00
2018-08-23T06:17:36.948Z,2052.00
2018-08-23T06:18:36.936Z,2076.00
2018-08-23T06:19:36.939Z,2096.00
2018-08-23T06:20:36.932Z,2116.00
2018-08-23T06:21:36.915Z,2140.00
2018-08-23T06:22:36.902Z,2160.00
2018-08-23T06:23:36.884Z,2172.00
2018-08-23T06:24:36.883Z,2188.00
2018-08-23T06:25:36.875Z,2288.00
2018-08-23T06:26:36.846Z,2740.00
2018-08-23T06:27:36.840Z,4644.00
2018-08-23T06:28:36.828Z,6676.00
2018-08-23T06:29:36.825Z,7120.00
2018-08-23T06:30:36.813Z,7168.00
2018-08-23T06:31:36.796Z,7208.00
2018-08-23T06:32:36.779Z,7308.00
2018-08-23T06:33:36.859Z,7344.00
2018-08-23T06:34:36.769Z,7416.00
2018-08-23T06:35:36.772Z,7476.00
2018-08-23T06:36:36.739Z,7552.00
2018-08-23T06:37:36.725Z,7592.00
2018-08-23T06:38:36.733Z,7628.00
2018-08-23T06:39:36.716Z,7668.00
2018-08-23T06:40:36.696Z,7760.00
2018-08-23T06:41:36.685Z,7844.00
2018-08-23T06:42:36.678Z,7920.00
2018-08-23T06:43:36.660Z,8004.00
2018-08-23T06:44:36.684Z,8100.00
2018-08-23T06:45:36.636Z,8184.00
2018-08-23T06:46:36.624Z,8268.00
2018-08-23T06:47:36.614Z,8364.00
2018-08-23T06:48:36.603Z,8436.00
2018-08-23T06:49:36.603Z,8520.00
2018-08-23T06:50:36.582Z,8596.00
2018-08-23T06:51:36.569Z,8660.00
2018-08-23T06:52:36.569Z,8728.00
2018-08-23T06:53:36.544Z,8724.00
2018-08-23T06:54:36.547Z,8780.00
2018-08-23T06:55:36.525Z,8880.00
2018-08-23T06:56:36.515Z,8912.00
2018-08-23T06:57:36.502Z,9044.00
2018-08-23T06:58:36.494Z,9152.00
2018-08-23T06:59:36.493Z,9300.00
2018-08-23T07:00:36.474Z,9372.00
2018-08-23T07:01:36.461Z,9432.00
2018-08-23T07:02:36.448Z,9508.00
2018-08-23T07:03:36.447Z,9588.00
2018-08-23T07:04:36.439Z,9716.00
2018-08-23T07:05:36.461Z,9748.00
2018-08-23T07:06:36.442Z,9840.00
2018-08-23T07:07:36.392Z,9964.00
2018-08-23T07:08:36.393Z,10060.00
2018-08-23T07:09:36.387Z,10104.00
2018-08-23T07:10:36.363Z,10104.00
2018-08-23T07:11:36.379Z,10120.00
2018-08-23T07:12:36.339Z,10188.00
2018-08-23T07:13:36.326Z,10236.00
2018-08-23T07:14:36.326Z,10288.00
2018-08-23T07:15:36.325Z,10376.00
2018-08-23T07:16:36.291Z,10360.00
2018-08-23T07:17:36.366Z,10520.00
2018-08-23T07:18:36.273Z,10604.00
2018-08-23T07:19:36.368Z,10712.00
2018-08-23T07:20:36.251Z,10788.00
2018-08-23T07:21:36.238Z,10808.00
2018-08-23T07:22:36.279Z,10800.00
2018-08-23T07:23:36.221Z,10884.00
2018-08-23T07:24:36.216Z,10988.00
2018-08-23T07:25:36.198Z,10948.00
2018-08-23T07:26:36.261Z,11020.00
2018-08-23T07:27:36.183Z,11028.00
2018-08-23T07:28:36.161Z,11044.00
2018-08-23T07:29:36.159Z,11108.00
2018-08-23T07:30:36.145Z,11132.00
2018-08-23T07:31:36.132Z,11156.00
2018-08-23T07:32:36.150Z,11196.00
2018-08-23T07:33:36.125Z,11204.00
2018-08-23T07:34:36.110Z,11156.00
2018-08-23T07:35:36.086Z,11208.00
2018-08-23T07:36:36.075Z,11276.00
2018-08-23T07:37:36.071Z,11284.00
2018-08-23T07:38:36.056Z,11448.00
2018-08-23T07:39:36.055Z,11548.00
2018-08-23T07:40:36.045Z,11656.00
2018-08-23T07:41:36.021Z,11836.00
2018-08-23T07:42:36.011Z,12064.00
2018-08-23T07:43:35.999Z,12180.00
2018-08-23T07:44:35.987Z,12124.00
2018-08-23T07:45:35.991Z,12196.00
2018-08-23T07:46:35.965Z,12396.00
2018-08-23T07:47:35.957Z,12552.00
2018-08-23T07:48:36.011Z,12728.00
2018-08-23T07:49:35.951Z,12896.00
2018-08-23T07:50:35.935Z,13120.00
2018-08-23T07:51:35.912Z,13280.00
2018-08-23T07:52:35.917Z,13376.00
2018-08-23T07:53:35.889Z,13536.00
2018-08-23T07:54:35.881Z,13600.00
2018-08-23T07:55:35.881Z,13760.00
2018-08-23T07:56:35.859Z,13792.00
2018-08-23T07:57:35.847Z,13856.00
2018-08-23T07:58:35.835Z,13856.00
2018-08-23T07:59:35.823Z,14016.00
2018-08-23T08:00:35.828Z,14144.00
2018-08-23T08:01:35.801Z,14272.00
2018-08-23T08:02:35.790Z,14240.00
2018-08-23T08:03:35.780Z,14272.00
2018-08-23T08:04:35.773Z,14304.00
2018-08-23T08:05:35.767Z,14496.00
2018-08-23T08:06:35.747Z,14528.00
2018-08-23T08:07:35.749Z,14656.00
2018-08-23T08:08:35.729Z,14688.00
2018-08-23T08:09:35.729Z,14848.00
2018-08-23T08:10:35.717Z,14944.00
2018-08-23T08:11:35.693Z,15040.00
2018-08-23T08:12:35.685Z,15424.00
2018-08-23T08:13:35.677Z,17632.00
2018-08-23T08:14:35.662Z,20384.00
2018-08-23T08:15:35.661Z,20864.00
2018-08-23T08:16:35.640Z,21312.00
2018-08-23T08:17:35.630Z,20128.00
2018-08-23T08:18:35.623Z,21632.00
2018-08-23T08:19:35.608Z,22592.00
2018-08-23T08:20:35.620Z,22272.00
2018-08-23T08:21:35.654Z,22080.00
2018-08-23T08:22:35.576Z,26368.00
2018-08-23T08:23:35.565Z,36064.00
2018-08-23T08:24:35.554Z,32096.00
2018-08-23T08:25:35.553Z,25888.00
2018-08-23T08:26:35.534Z,26336.00
2018-08-23T08:27:35.523Z,28160.00
2018-08-23T08:28:35.513Z,28032.00
2018-08-23T08:29:35.500Z,27296.00
2018-08-23T08:30:35.502Z,23840.00
2018-08-23T08:31:35.477Z,20736.00
2018-08-23T08:32:35.466Z,21536.00
2018-08-23T08:33:35.454Z,25312.00
2018-08-23T08:34:35.446Z,29120.00
2018-08-23T08:35:35.451Z,31072.00
2018-08-23T08:36:35.426Z,38944.00
2018-08-23T08:37:35.413Z,62336.00
2018-08-23T08:38:35.401Z,67936.00
2018-08-23T08:39:35.392Z,71712.00
2018-08-23T08:40:35.393Z,72832.00
2018-08-23T08:41:35.378Z,73792.00
2018-08-23T08:42:35.360Z,75552.00
2018-08-23T08:43:35.348Z,75264.00
2018-08-23T08:44:35.339Z,75360.00
2018-08-23T08:45:35.339Z,76736.00
2018-08-23T08:46:35.315Z,77312.00
2018-08-23T08:47:35.306Z,79616.00
2018-08-23T08:48:35.296Z,79360.00
2018-08-23T08:49:35.283Z,77952.00
2018-08-23T08:50:35.340Z,80704.00
2018-08-23T08:51:35.262Z,81376.00
2018-08-23T08:52:35.253Z,80992.00
2018-08-23T08:53:35.240Z,85952.00
2018-08-23T08:54:35.230Z,85920.00
2018-08-23T08:55:35.228Z,85024.00
2018-08-23T08:56:35.223Z,87328.00
2018-08-23T08:57:35.200Z,87168.00
2018-08-23T08:58:35.185Z,87840.00
2018-08-23T08:59:35.175Z,91200.00
2018-08-23T09:00:35.178Z,93152.00
2018-08-23T09:01:35.152Z,93248.00
2018-08-23T09:02:35.143Z,93792.00
2018-08-23T09:03:35.133Z,95584.00
2018-08-23T09:04:35.120Z,96096.00
2018-08-23T09:05:35.121Z,94080.00
2018-08-23T09:06:35.100Z,96736.00
2018-08-23T09:07:35.090Z,99520.00
2018-08-23T09:08:35.076Z,98592.00
2018-08-23T09:09:35.067Z,97312.00
2018-08-23T09:10:35.066Z,96192.00
2018-08-23T09:11:35.044Z,96128.00
2018-08-23T09:12:35.033Z,97216.00
2018-08-23T09:13:35.024Z,93984.00
2018-08-23T09:14:35.018Z,92256.00
2018-08-23T09:15:35.012Z,91936.00
2018-08-23T09:16:34.993Z,92000.00
2018-08-23T09:17:34.980Z,93888.00
2018-08-23T09:18:34.973Z,89152.00
2018-08-23T09:19:34.971Z,40576.00
2018-08-23T09:20:34.992Z,26560.00
2018-08-23T09:21:34.937Z,87520.00
2018-08-23T09:22:34.936Z,69536.00
2018-08-23T09:23:34.915Z,67488.00
2018-08-23T09:24:34.904Z,67424.00
2018-08-23T09:25:34.901Z,66880.00
2018-08-23T09:26:34.881Z,68256.00
2018-08-23T09:27:34.913Z,67840.00
2018-08-23T09:28:34.888Z,66656.00
2018-08-23T09:29:34.849Z,67680.00
2018-08-23T09:30:34.848Z,67328.00
2018-08-23T09:31:34.826Z,65216.00
2018-08-23T09:32:34.820Z,66432.00
2018-08-23T09:33:34.805Z,66624.00
2018-08-23T09:34:34.800Z,67808.00
2018-08-23T09:35:34.798Z,67104.00
2018-08-23T09:36:34.772Z,69600.00
2018-08-23T09:37:34.765Z,69888.00
2018-08-23T09:38:34.756Z,7124.00
2018-08-23T09:39:34.744Z,5900.00
2018-08-23T09:40:34.754Z,4860.00
2018-08-23T09:41:34.719Z,66944.00
2018-08-23T09:42:34.709Z,69248.00
2018-08-23T09:43:34.698Z,70816.00
2018-08-23T09:44:34.686Z,71872.00
2018-08-23T09:45:34.675Z,7080.00
2018-08-23T09:46:34.675Z,4844.00
2018-08-23T09:47:34.654Z,5384.00
2018-08-23T09:48:34.642Z,6200.00
2018-08-23T09:49:34.633Z,16320.00
2018-08-23T09:50:34.675Z,71680.00
2018-08-23T09:51:34.624Z,70560.00
2018-08-23T09:52:34.601Z,69856.00
2018-08-23T09:53:34.589Z,68896.00
2018-08-23T09:54:34.580Z,68480.00
2018-08-23T09:55:34.567Z,67712.00
2018-08-23T09:56:34.628Z,43296.00
2018-08-23T09:57:34.547Z,10788.00
2018-08-23T09:58:34.534Z,7248.00
2018-08-23T09:59:34.524Z,7068.00
2018-08-23T10:00:34.513Z,6824.00
2018-08-23T10:01:34.513Z,7368.00
2018-08-23T10:02:34.494Z,8348.00
2018-08-23T10:03:34.477Z,8448.00
2018-08-23T10:04:34.496Z,9752.00
2018-08-23T10:05:34.469Z,9360.00
2018-08-23T10:06:34.457Z,8236.00
2018-08-23T10:07:34.440Z,7076.00
2018-08-23T10:08:34.425Z,6116.00
2018-08-23T10:09:34.417Z,5472.00
2018-08-23T10:10:34.411Z,6284.00
2018-08-23T10:11:34.415Z,6568.00
2018-08-23T10:12:34.387Z,6396.00
2018-08-23T10:13:34.374Z,6232.00
2018-08-23T10:14:34.365Z,6988.00
2018-08-23T10:15:34.351Z,6536.00
2018-08-23T10:16:34.353Z,6264.00
2018-08-23T10:17:34.331Z,5960.00
2018-08-23T10:18:34.321Z,6204.00
2018-08-23T10:19:34.309Z,6384.00
2018-08-23T10:20:34.299Z,6228.00
2018-08-23T10:21:34.308Z,6104.00
2018-08-23T10:22:34.282Z,6808.00
2018-08-23T10:23:34.268Z,6776.00
2018-08-23T10:24:34.252Z,6520.00
2018-08-23T10:25:34.244Z,6176.00
2018-08-23T10:26:34.284Z,5800.00
2018-08-23T10:27:34.222Z,6180.00
2018-08-23T10:28:34.210Z,5164.00
2018-08-23T10:29:34.199Z,5076.00
2018-08-23T10:30:34.186Z,5228.00
2018-08-23T10:31:34.188Z,4784.00
2018-08-23T10:32:34.170Z,4920.00
2018-08-23T10:33:34.159Z,4748.00
2018-08-23T10:34:34.152Z,4388.00
2018-08-23T10:35:34.134Z,4208.00
2018-08-23T10:36:34.139Z,4168.00
2018-08-23T10:37:34.110Z,4176.00
2018-08-23T10:38:34.674Z,4056.00
2018-08-23T10:39:34.089Z,4020.00
2018-08-23T10:40:34.084Z,3912.00
2018-08-23T10:41:34.091Z,3872.00
2018-08-23T10:42:34.056Z,4540.00
2018-08-23T10:43:34.048Z,5400.00
2018-08-23T10:44:34.094Z,5248.00
2018-08-23T10:45:34.030Z,4800.00
2018-08-23T10:46:34.028Z,4472.00
2018-08-23T10:47:34.003Z,4540.00
2018-08-23T10:48:33.993Z,4780.00
2018-08-23T10:49:33.983Z,5512.00
2018-08-23T10:50:33.993Z,5568.00
2018-08-23T10:51:33.973Z,4728.00
2018-08-23T10:52:33.952Z,4412.00
2018-08-23T10:53:33.940Z,4220.00
2018-08-23T10:54:33.929Z,4248.00
2018-08-23T10:55:33.917Z,4444.00
2018-08-23T10:56:33.915Z,4672.00
2018-08-23T10:57:33.896Z,4476.00
2018-08-23T10:58:33.887Z,4196.00
2018-08-23T10:59:33.873Z,4008.00
2018-08-23T11:00:33.870Z,4112.00
2018-08-23T11:01:33.862Z,4264.00
2018-08-23T11:02:33.895Z,4552.00
2018-08-23T11:03:33.831Z,4760.00
2018-08-23T11:04:33.821Z,4332.00
2018-08-23T11:05:33.808Z,4564.00
2018-08-23T11:06:33.808Z,4756.00
2018-08-23T11:07:33.788Z,5204.00
2018-08-23T11:08:33.778Z,6016.00
2018-08-23T11:09:33.813Z,5568.00
2018-08-23T11:10:33.756Z,5740.00
2018-08-23T11:11:33.758Z,4984.00
2018-08-23T11:12:33.736Z,4624.00
2018-08-23T11:13:33.722Z,4812.00
2018-08-23T11:14:33.712Z,4704.00
2018-08-23T11:15:33.702Z,4196.00
2018-08-23T11:16:33.706Z,4172.00
2018-08-23T11:17:33.680Z,4172.00
2018-08-23T11:18:33.667Z,4532.00
2018-08-23T11:19:33.658Z,4764.00
2018-08-23T11:20:33.654Z,5216.00
2018-08-23T11:21:33.649Z,5200.00
2018-08-23T11:22:33.623Z,4672.00
2018-08-23T11:23:33.616Z,4100.00
2018-08-23T11:24:33.601Z,4064.00
2018-08-23T11:25:33.593Z,4424.00
2018-08-23T11:26:33.622Z,4780.00
2018-08-23T11:27:33.570Z,4792.00
2018-08-23T11:28:33.559Z,4900.00
2018-08-23T11:29:33.578Z,5608.00
2018-08-23T11:30:33.540Z,5496.00
2018-08-23T11:31:33.537Z,5408.00
2018-08-23T11:32:33.521Z,5948.00
2018-08-23T11:33:33.518Z,5336.00
2018-08-23T11:34:33.497Z,5496.00
2018-08-23T11:35:33.498Z,5220.00
2018-08-23T11:36:33.488Z,5168.00
2018-08-23T11:37:33.462Z,5852.00
2018-08-23T11:38:33.452Z,6628.00
2018-08-23T11:39:33.441Z,6588.00
2018-08-23T11:40:33.430Z,6464.00
2018-08-23T11:41:33.430Z,5728.00
2018-08-23T11:42:33.411Z,4808.00
2018-08-23T11:43:33.401Z,4556.00
2018-08-23T11:44:33.388Z,4576.00
2018-08-23T11:45:33.377Z,4688.00
2018-08-23T11:46:33.398Z,4884.00
2018-08-23T11:47:33.356Z,4692.00
2018-08-23T11:48:33.347Z,4380.00
2018-08-23T11:49:33.333Z,3812.00
2018-08-23T11:50:33.322Z,4600.00
2018-08-23T11:51:33.311Z,4424.00
2018-08-23T11:52:33.316Z,4072.00
2018-08-23T11:53:33.506Z,4720.00
2018-08-23T11:54:33.282Z,5572.00
2018-08-23T11:55:33.270Z,5860.00
2018-08-23T11:56:33.257Z,6732.00
2018-08-23T11:57:33.257Z,7120.00
2018-08-23T11:58:33.266Z,7748.00
2018-08-23T11:59:33.225Z,7336.00
2018-08-23T12:00:33.215Z,6036.00
2018-08-23T12:01:33.204Z,5628.00
2018-08-23T12:02:33.205Z,5904.00
2018-08-23T12:03:33.183Z,5136.00
2018-08-23T12:04:33.169Z,4328.00
2018-08-23T12:05:33.162Z,4312.00
2018-08-23T12:06:33.205Z,4728.00
2018-08-23T12:07:33.148Z,4524.00
2018-08-23T12:08:33.130Z,3732.00
2018-08-23T12:09:33.118Z,3252.00
2018-08-23T12:10:33.106Z,3676.00
2018-08-23T12:11:33.094Z,3644.00
2018-08-23T12:12:33.097Z,3268.00
2018-08-23T12:13:33.076Z,3440.00
2018-08-23T12:14:33.064Z,3572.00
2018-08-23T12:15:33.123Z,3356.00
2018-08-23T12:16:33.040Z,2600.00
2018-08-23T12:17:33.040Z,1904.00
2018-08-23T12:18:33.023Z,1608.00
2018-08-23T12:19:33.010Z,1448.00
2018-08-23T12:20:32.996Z,1344.00
2018-08-23T12:21:32.988Z,1268.00
2018-08-23T12:22:32.989Z,1248.00
2018-08-23T12:23:32.967Z,1264.00
2018-08-23T12:24:32.958Z,1384.00
2018-08-23T12:25:33.023Z,1440.00
2018-08-23T12:26:32.976Z,1472.00
2018-08-23T12:27:32.932Z,1536.00
2018-08-23T12:28:32.910Z,1580.00
2018-08-23T12:29:32.902Z,1636.00
2018-08-23T12:30:32.892Z,1672.00
2018-08-23T12:31:32.936Z,1552.00
2018-08-23T12:32:32.878Z,1424.00
2018-08-23T12:33:32.861Z,1420.00
2018-08-23T12:34:32.845Z,1528.00
2018-08-23T12:35:32.838Z,1688.00
2018-08-23T12:36:32.824Z,1904.00
2018-08-23T12:37:32.858Z,2020.00
2018-08-23T12:38:32.803Z,1908.00
2018-08-23T12:39:32.793Z,1824.00
2018-08-23T12:40:32.787Z,1712.00
2018-08-23T12:41:32.770Z,1688.00
2018-08-23T12:42:32.774Z,1592.00
2018-08-23T12:43:32.853Z,1516.00
2018-08-23T12:44:32.749Z,1476.00
2018-08-23T12:45:32.728Z,1496.00
2018-08-23T12:46:32.734Z,1516.00
2018-08-23T12:47:32.717Z,1480.00
2018-08-23T12:48:32.694Z,1508.00
2018-08-23T12:49:32.734Z,1564.00
2018-08-23T12:50:32.674Z,1636.00
2018-08-23T12:51:32.662Z,1664.00
2018-08-23T12:52:32.674Z,1644.00
2018-08-23T12:53:32.640Z,1640.00
2018-08-23T12:54:32.634Z,1624.00
2018-08-23T12:55:32.620Z,1612.00
2018-08-23T12:56:32.672Z,1608.00
2018-08-23T12:57:32.597Z,1624.00
2018-08-23T12:58:32.598Z,1656.00
2018-08-23T12:59:32.576Z,1660.00
2018-08-23T13:00:32.564Z,1596.00
2018-08-23T13:01:32.584Z,1544.00
2018-08-23T13:02:32.746Z,1552.00
2018-08-23T13:03:32.600Z,1564.00
2018-08-23T13:04:32.521Z,1504.00
2018-08-23T13:05:32.510Z,1420.00
2018-08-23T13:06:32.506Z,1344.00
2018-08-23T13:07:32.572Z,1352.00
2018-08-23T13:08:34.150Z,1420.00
2018-08-23T13:09:32.469Z,1576.00
2018-08-23T13:10:32.552Z,1792.00
2018-08-23T13:11:32.454Z,1920.00
2018-08-23T13:12:32.681Z,1836.00
2018-08-23T13:13:32.444Z,1680.00
2018-08-23T13:14:32.535Z,1588.00
2018-08-23T13:15:32.406Z,1424.00
2018-08-23T13:16:32.392Z,1188.00
2018-08-23T13:17:32.406Z,1224.00
2018-08-23T13:18:32.521Z,1732.00
2018-08-23T13:19:32.361Z,2980.00
2018-08-23T13:20:32.394Z,2836.00
2018-08-23T13:21:32.725Z,2472.00
2018-08-23T13:22:32.445Z,3708.00
2018-08-23T13:23:32.653Z,5736.00
2018-08-23T13:24:32.309Z,6904.00
2018-08-23T13:25:32.295Z,6636.00
2018-08-23T13:26:32.284Z,5468.00
2018-08-23T13:27:32.382Z,5216.00
2018-08-23T13:28:32.493Z,5852.00
2018-08-23T13:29:32.272Z,6600.00
2018-08-23T13:30:32.245Z,7396.00
2018-08-23T13:31:32.231Z,7564.00
2018-08-23T13:32:32.221Z,7588.00
2018-08-23T13:33:32.209Z,7668.00
2018-08-23T13:34:32.210Z,7552.00
2018-08-23T13:35:32.271Z,7436.00
2018-08-23T13:36:32.250Z,6752.00
2018-08-23T13:37:32.171Z,6148.00
2018-08-23T13:38:32.154Z,5760.00
2018-08-23T13:39:32.155Z,4916.00
2018-08-23T13:40:32.287Z,4712.00
2018-08-23T13:41:32.258Z,4624.00
2018-08-23T13:42:32.273Z,4380.00
2018-08-23T13:43:32.243Z,3900.00
2018-08-23T13:44:32.217Z,3664.00
2018-08-23T13:45:32.288Z,3868.00
2018-08-23T13:46:32.151Z,4084.00
2018-08-23T13:47:32.065Z,4076.00
2018-08-23T13:48:32.164Z,4044.00
2018-08-23T13:49:32.048Z,3868.00
2018-08-23T13:50:32.026Z,3820.00
2018-08-23T13:51:32.026Z,4352.00
2018-08-23T13:52:32.030Z,4660.00
2018-08-23T13:53:32.161Z,4252.00
2018-08-23T13:54:31.996Z,3916.00
2018-08-23T13:55:31.972Z,3764.00
2018-08-23T13:56:31.962Z,3708.00
2018-08-23T13:57:31.949Z,3772.00
2018-08-23T13:58:31.960Z,3428.00
2018-08-23T13:59:31.943Z,3244.00
2018-08-23T14:00:31.920Z,3828.00
2018-08-23T14:01:31.911Z,4220.00
2018-08-23T14:02:31.964Z,4060.00
2018-08-23T14:03:31.887Z,3784.00
2018-08-23T14:04:31.888Z,3524.00
2018-08-23T14:05:31.864Z,3652.00
2018-08-23T14:06:31.936Z,3660.00
2018-08-23T14:07:31.851Z,3816.00
2018-08-23T14:08:31.836Z,3124.00
2018-08-23T14:09:32.234Z,2456.00
2018-08-23T14:10:31.810Z,1800.00
2018-08-23T14:11:31.798Z,1532.00
2018-08-23T14:12:31.790Z,1440.00
2018-08-23T14:13:31.777Z,1880.00
2018-08-23T14:14:31.776Z,2276.00
2018-08-23T14:15:31.756Z,1936.00
2018-08-23T14:16:31.744Z,1432.00
2018-08-23T14:17:31.840Z,1080.00
2018-08-23T14:18:31.722Z,836.00
2018-08-23T14:19:31.741Z,760.00
2018-08-23T14:20:31.744Z,708.00
2018-08-23T14:21:31.691Z,588.00
2018-08-23T14:22:31.681Z,476.00
2018-08-23T14:23:31.674Z,420.00
2018-08-23T14:24:31.657Z,400.00
2018-08-23T14:25:31.659Z,392.00
2018-08-23T14:26:31.711Z,396.00
2018-08-23T14:27:31.627Z,444.00
2018-08-23T14:28:31.727Z,468.00
2018-08-23T14:29:31.602Z,428.00
2018-08-23T14:30:31.608Z,432.00
2018-08-23T14:31:31.582Z,440.00
2018-08-23T14:32:31.601Z,448.00
2018-08-23T14:33:31.561Z,480.00
2018-08-23T14:34:31.638Z,524.00
2018-08-23T14:35:31.551Z,564.00
2018-08-23T14:36:31.644Z,652.00
2018-08-23T14:37:31.629Z,736.00
2018-08-23T14:38:31.563Z,844.00
2018-08-23T14:39:31.493Z,968.00
2018-08-23T14:40:31.505Z,1144.00
2018-08-23T14:41:31.475Z,1308.00
2018-08-23T14:42:31.466Z,1488.00
2018-08-23T14:43:31.451Z,1676.00
2018-08-23T14:44:31.440Z,1932.00
2018-08-23T14:45:31.440Z,2036.00
2018-08-23T14:46:31.433Z,1932.00
2018-08-23T14:47:31.409Z,1808.00
2018-08-23T14:48:31.398Z,1644.00
2018-08-23T14:49:31.385Z,1596.00
2018-08-23T14:50:31.388Z,1520.00
2018-08-23T14:51:31.369Z,1312.00
2018-08-23T14:52:31.354Z,1188.00
2018-08-23T14:53:31.813Z,1156.00
2018-08-23T14:54:31.404Z,1104.00
2018-08-23T14:55:31.465Z,1052.00
2018-08-23T14:56:31.311Z,1044.00
2018-08-23T14:57:31.303Z,1108.00
2018-08-23T14:58:31.287Z,1244.00
2018-08-23T14:59:31.279Z,1444.00
2018-08-23T15:00:31.281Z,1696.00
2018-08-23T15:01:31.257Z,1856.00
2018-08-23T15:02:31.246Z,1868.00
2018-08-23T15:03:31.233Z,1988.00
2018-08-23T15:04:31.224Z,2336.00
2018-08-23T15:05:31.224Z,2676.00
2018-08-23T15:06:31.201Z,2884.00
2018-08-23T15:07:31.216Z,2988.00
2018-08-23T15:08:31.181Z,2920.00
2018-08-23T15:09:31.231Z,2764.00
2018-08-23T15:10:31.198Z,2432.00
2018-08-23T15:11:31.147Z,2576.00
2018-08-23T15:12:31.138Z,2904.00
2018-08-23T15:13:31.125Z,3096.00
2018-08-23T15:14:31.152Z,2956.00
2018-08-23T15:15:31.179Z,3048.00
2018-08-23T15:16:31.104Z,3068.00
2018-08-23T15:17:31.084Z,2960.00
2018-08-23T15:18:31.073Z,2912.00
2018-08-23T15:19:31.062Z,2832.00
2018-08-23T15:20:31.050Z,2528.00
2018-08-23T15:21:31.052Z,2276.00
2018-08-23T15:22:31.030Z,2108.00
2018-08-23T15:23:31.018Z,2064.00
2018-08-23T15:24:31.008Z,2072.00
2018-08-23T15:25:31.073Z,2020.00
2018-08-23T15:26:31.293Z,1908.00
2018-08-23T15:27:30.977Z,1812.00
2018-08-23T15:28:30.984Z,1732.00
2018-08-23T15:29:30.956Z,1624.00
2018-08-23T15:30:30.940Z,1488.00
2018-08-23T15:31:30.943Z,1344.00
2018-08-23T15:32:30.922Z,1184.00
2018-08-23T15:33:30.909Z,1048.00
2018-08-23T15:34:30.899Z,956.00
2018-08-23T15:35:30.889Z,892.00
2018-08-23T15:36:30.889Z,884.00
2018-08-23T15:37:30.866Z,932.00
2018-08-23T15:38:30.855Z,968.00
2018-08-23T15:39:30.918Z,952.00
2018-08-23T15:40:30.838Z,924.00
2018-08-23T15:41:30.831Z,904.00
2018-08-23T15:42:30.824Z,864.00
2018-08-23T15:43:30.802Z,860.00
2018-08-23T15:44:30.788Z,852.00
2018-08-23T15:45:30.781Z,840.00
2018-08-23T15:46:30.813Z,796.00
2018-08-23T15:47:30.757Z,772.00
2018-08-23T15:48:30.746Z,736.00
2018-08-23T15:49:30.734Z,700.00
2018-08-23T15:50:30.724Z,660.00
2018-08-23T15:51:30.724Z,660.00
2018-08-23T15:52:30.701Z,664.00
2018-08-23T15:53:30.692Z,664.00
2018-08-23T15:54:30.682Z,644.00
2018-08-23T15:55:30.804Z,620.00
2018-08-23T15:56:30.672Z,628.00
2018-08-23T15:57:30.655Z,648.00
2018-08-23T15:58:30.639Z,676.00
2018-08-23T15:59:30.631Z,696.00
2018-08-23T16:00:30.616Z,692.00
2018-08-23T16:01:30.869Z,684.00
2018-08-23T16:02:30.668Z,684.00
2018-08-23T16:03:30.585Z,668.00
2018-08-23T16:04:30.571Z,660.00
2018-08-23T16:05:30.644Z,668.00